sensor_id;sensor_type;location;lat;lon;timestamp;P1;durP1;ratioP1;P2;durP2;ratioP2
39098;SDS011;24844;52.380;7.018;2022-10-16T00:01:21;5.53;;;2.45;;
39098;SDS011;24844;52.380;7.018;2022-10-16T00:03:49;9.38;;;2.45;;
39098;SDS011;24844;52.380;7.018;2022-10-16T00:06:16;5.90;;;2.30;;
39098;SDS011;24844;52.380;7.018;2022-10-16T00:08:43;4.80;;;2.40;;
39098;SDS011;24844;52.380;7.018;2022-10-16T00:11:11;6.60;;;2.45;;
39098;SDS011;24844;52.380;7.018;2022-10-16T00:13:39;7.40;;;2.30;;
39098;SDS011;24844;52.380;7.018;2022-10-16T00:16:06;5.22;;;2.20;;
39098;SDS011;24844;52.380;7.018;2022-10-16T00:18:33;7.85;;;2.63;;
39098;SDS011;24844;52.380;7.018;2022-10-16T00:21:05;6.82;;;2.42;;
39098;SDS011;24844;52.380;7.018;2022-10-16T00:23:37;6.03;;;2.38;;
39098;SDS011;24844;52.380;7.018;2022-10-16T00:26:07;5.88;;;2.60;;
39098;SDS011;24844;52.380;7.018;2022-10-16T00:28:34;7.55;;;2.65;;
39098;SDS011;24844;52.380;7.018;2022-10-16T00:31:07;6.88;;;2.67;;
39098;SDS011;24844;52.380;7.018;2022-10-16T00:33:36;7.60;;;2.63;;
39098;SDS011;24844;52.380;7.018;2022-10-16T00:36:03;5.18;;;2.40;;
39098;SDS011;24844;52.380;7.018;2022-10-16T00:38:30;5.85;;;2.38;;
39098;SDS011;24844;52.380;7.018;2022-10-16T00:40:56;4.30;;;2.08;;
39098;SDS011;24844;52.380;7.018;2022-10-16T00:43:39;12.43;;;2.38;;
39098;SDS011;24844;52.380;7.018;2022-10-16T00:46:15;8.85;;;2.55;;
39098;SDS011;24844;52.380;7.018;2022-10-16T00:48:48;8.55;;;2.47;;
39098;SDS011;24844;52.380;7.018;2022-10-16T00:51:35;8.70;;;2.05;;
39098;SDS011;24844;52.380;7.018;2022-10-16T00:54:17;6.80;;;2.47;;
39098;SDS011;24844;52.380;7.018;2022-10-16T00:56:46;6.43;;;2.15;;
39098;SDS011;24844;52.380;7.018;2022-10-16T00:59:32;5.57;;;1.92;;
39098;SDS011;24844;52.380;7.018;2022-10-16T01:02:00;7.00;;;2.25;;
39098;SDS011;24844;52.380;7.018;2022-10-16T01:04:27;7.80;;;2.00;;
39098;SDS011;24844;52.380;7.018;2022-10-16T01:12:06;6.20;;;1.67;;
39098;SDS011;24844;52.380;7.018;2022-10-16T01:17:22;5.88;;;1.83;;
39098;SDS011;24844;52.380;7.018;2022-10-16T01:20:20;6.53;;;1.80;;
39098;SDS011;24844;52.380;7.018;2022-10-16T01:28:19;5.43;;;1.50;;
39098;SDS011;24844;52.380;7.018;2022-10-16T01:30:47;4.53;;;1.52;;
39098;SDS011;24844;52.380;7.018;2022-10-16T01:33:20;12.43;;;1.85;;
39098;SDS011;24844;52.380;7.018;2022-10-16T01:35:52;9.30;;;1.73;;
39098;SDS011;24844;52.380;7.018;2022-10-16T01:38:36;2.80;;;1.60;;
39098;SDS011;24844;52.380;7.018;2022-10-16T01:41:10;7.60;;;2.05;;
39098;SDS011;24844;52.380;7.018;2022-10-16T01:43:41;7.80;;;2.20;;
39098;SDS011;24844;52.380;7.018;2022-10-16T01:46:10;5.03;;;2.03;;
39098;SDS011;24844;52.380;7.018;2022-10-16T01:48:40;8.70;;;2.25;;
39098;SDS011;24844;52.380;7.018;2022-10-16T01:51:07;5.07;;;1.80;;
39098;SDS011;24844;52.380;7.018;2022-10-16T01:53:36;5.57;;;2.20;;
39098;SDS011;24844;52.380;7.018;2022-10-16T01:56:03;5.28;;;1.92;;
39098;SDS011;24844;52.380;7.018;2022-10-16T01:58:33;4.97;;;2.08;;
39098;SDS011;24844;52.380;7.018;2022-10-16T02:01:03;10.38;;;2.85;;
39098;SDS011;24844;52.380;7.018;2022-10-16T02:03:32;5.25;;;2.30;;
39098;SDS011;24844;52.380;7.018;2022-10-16T02:05:59;5.22;;;2.60;;
39098;SDS011;24844;52.380;7.018;2022-10-16T02:08:25;4.90;;;2.50;;
39098;SDS011;24844;52.380;7.018;2022-10-16T02:10:54;7.28;;;2.60;;
39098;SDS011;24844;52.380;7.018;2022-10-16T02:13:24;10.52;;;3.10;;
39098;SDS011;24844;52.380;7.018;2022-10-16T02:15:59;6.57;;;2.95;;
39098;SDS011;24844;52.380;7.018;2022-10-16T02:18:25;6.40;;;3.20;;
39098;SDS011;24844;52.380;7.018;2022-10-16T02:23:45;10.60;;;4.05;;
39098;SDS011;24844;52.380;7.018;2022-10-16T02:26:18;7.85;;;3.53;;
39098;SDS011;24844;52.380;7.018;2022-10-16T02:28:52;8.50;;;4.10;;
39098;SDS011;24844;52.380;7.018;2022-10-16T02:31:25;5.70;;;3.90;;
39098;SDS011;24844;52.380;7.018;2022-10-16T02:33:56;7.75;;;4.35;;
39098;SDS011;24844;52.380;7.018;2022-10-16T02:36:25;10.25;;;4.20;;
39098;SDS011;24844;52.380;7.018;2022-10-16T02:38:51;7.75;;;4.65;;
39098;SDS011;24844;52.380;7.018;2022-10-16T02:41:18;8.15;;;4.75;;
39098;SDS011;24844;52.380;7.018;2022-10-16T02:43:46;12.13;;;5.07;;
39098;SDS011;24844;52.380;7.018;2022-10-16T02:46:11;7.43;;;4.68;;
39098;SDS011;24844;52.380;7.018;2022-10-16T02:48:37;7.45;;;4.65;;
39098;SDS011;24844;52.380;7.018;2022-10-16T02:51:02;8.18;;;5.50;;
39098;SDS011;24844;52.380;7.018;2022-10-16T02:53:28;8.85;;;5.32;;
39098;SDS011;24844;52.380;7.018;2022-10-16T02:55:54;5.05;;;3.15;;
39098;SDS011;24844;52.380;7.018;2022-10-16T02:58:19;7.72;;;4.60;;
39098;SDS011;24844;52.380;7.018;2022-10-16T03:00:45;9.00;;;4.45;;
39098;SDS011;24844;52.380;7.018;2022-10-16T03:03:11;8.85;;;4.75;;
39098;SDS011;24844;52.380;7.018;2022-10-16T03:05:36;8.35;;;4.43;;
39098;SDS011;24844;52.380;7.018;2022-10-16T03:08:02;6.28;;;3.90;;
39098;SDS011;24844;52.380;7.018;2022-10-16T03:10:27;7.32;;;4.30;;
39098;SDS011;24844;52.380;7.018;2022-10-16T03:12:53;9.25;;;4.55;;
39098;SDS011;24844;52.380;7.018;2022-10-16T03:15:18;7.15;;;4.70;;
39098;SDS011;24844;52.380;7.018;2022-10-16T03:17:44;9.85;;;4.72;;
39098;SDS011;24844;52.380;7.018;2022-10-16T03:20:10;11.63;;;4.43;;
39098;SDS011;24844;52.380;7.018;2022-10-16T03:22:35;7.50;;;4.00;;
39098;SDS011;24844;52.380;7.018;2022-10-16T03:25:01;6.90;;;3.58;;
39098;SDS011;24844;52.380;7.018;2022-10-16T03:27:27;6.72;;;4.13;;
39098;SDS011;24844;52.380;7.018;2022-10-16T03:29:52;8.23;;;4.20;;
39098;SDS011;24844;52.380;7.018;2022-10-16T03:32:18;5.13;;;3.80;;
39098;SDS011;24844;52.380;7.018;2022-10-16T03:34:45;5.82;;;3.53;;
39098;SDS011;24844;52.380;7.018;2022-10-16T03:37:10;5.95;;;3.60;;
39098;SDS011;24844;52.380;7.018;2022-10-16T03:39:36;5.45;;;3.80;;
39098;SDS011;24844;52.380;7.018;2022-10-16T03:42:01;5.90;;;3.22;;
39098;SDS011;24844;52.380;7.018;2022-10-16T03:44:27;4.82;;;3.45;;
39098;SDS011;24844;52.380;7.018;2022-10-16T03:46:53;5.03;;;3.38;;
39098;SDS011;24844;52.380;7.018;2022-10-16T03:49:18;5.28;;;3.28;;
39098;SDS011;24844;52.380;7.018;2022-10-16T03:51:44;6.43;;;3.42;;
39098;SDS011;24844;52.380;7.018;2022-10-16T03:54:09;3.08;;;2.55;;
39098;SDS011;24844;52.380;7.018;2022-10-16T03:56:35;8.05;;;3.53;;
39098;SDS011;24844;52.380;7.018;2022-10-16T03:59:01;5.82;;;3.00;;
39098;SDS011;24844;52.380;7.018;2022-10-16T04:01:26;4.97;;;2.80;;
39098;SDS011;24844;52.380;7.018;2022-10-16T04:03:52;4.07;;;2.90;;
39098;SDS011;24844;52.380;7.018;2022-10-16T04:06:17;4.18;;;2.70;;
39098;SDS011;24844;52.380;7.018;2022-10-16T04:08:43;4.30;;;2.97;;
39098;SDS011;24844;52.380;7.018;2022-10-16T04:11:09;6.03;;;3.13;;
39098;SDS011;24844;52.380;7.018;2022-10-16T04:13:35;5.32;;;2.97;;
39098;SDS011;24844;52.380;7.018;2022-10-16T04:16:00;6.03;;;3.17;;
39098;SDS011;24844;52.380;7.018;2022-10-16T04:18:26;7.03;;;3.10;;
39098;SDS011;24844;52.380;7.018;2022-10-16T04:20:54;5.60;;;2.70;;
39098;SDS011;24844;52.380;7.018;2022-10-16T04:23:20;4.63;;;2.70;;
39098;SDS011;24844;52.380;7.018;2022-10-16T04:25:45;5.10;;;2.95;;
39098;SDS011;24844;52.380;7.018;2022-10-16T04:28:11;4.63;;;2.83;;
39098;SDS011;24844;52.380;7.018;2022-10-16T04:30:40;5.50;;;3.10;;
39098;SDS011;24844;52.380;7.018;2022-10-16T04:33:05;4.35;;;2.80;;
39098;SDS011;24844;52.380;7.018;2022-10-16T04:35:33;7.50;;;3.05;;
39098;SDS011;24844;52.380;7.018;2022-10-16T04:37:58;5.60;;;2.60;;
39098;SDS011;24844;52.380;7.018;2022-10-16T04:40:24;3.70;;;2.70;;
39098;SDS011;24844;52.380;7.018;2022-10-16T04:42:49;4.25;;;2.65;;
39098;SDS011;24844;52.380;7.018;2022-10-16T04:45:15;7.28;;;3.25;;
39098;SDS011;24844;52.380;7.018;2022-10-16T04:47:41;6.53;;;2.75;;
39098;SDS011;24844;52.380;7.018;2022-10-16T04:50:06;3.30;;;2.45;;
39098;SDS011;24844;52.380;7.018;2022-10-16T04:52:32;4.15;;;2.55;;
39098;SDS011;24844;52.380;7.018;2022-10-16T04:54:58;3.03;;;2.40;;
39098;SDS011;24844;52.380;7.018;2022-10-16T04:57:26;6.20;;;2.65;;
39098;SDS011;24844;52.380;7.018;2022-10-16T04:59:52;5.63;;;2.65;;
39098;SDS011;24844;52.380;7.018;2022-10-16T05:02:18;3.80;;;2.47;;
39098;SDS011;24844;52.380;7.018;2022-10-16T05:04:44;4.25;;;2.60;;
39098;SDS011;24844;52.380;7.018;2022-10-16T05:07:09;4.82;;;2.92;;
39098;SDS011;24844;52.380;7.018;2022-10-16T05:09:35;2.95;;;2.65;;
39098;SDS011;24844;52.380;7.018;2022-10-16T05:12:00;5.47;;;2.80;;
39098;SDS011;24844;52.380;7.018;2022-10-16T05:14:26;4.40;;;2.70;;
39098;SDS011;24844;52.380;7.018;2022-10-16T05:16:52;3.65;;;2.45;;
39098;SDS011;24844;52.380;7.018;2022-10-16T05:19:17;8.20;;;2.80;;
39098;SDS011;24844;52.380;7.018;2022-10-16T05:21:43;6.53;;;2.63;;
39098;SDS011;24844;52.380;7.018;2022-10-16T05:24:08;5.68;;;2.55;;
39098;SDS011;24844;52.380;7.018;2022-10-16T05:26:34;4.72;;;2.60;;
39098;SDS011;24844;52.380;7.018;2022-10-16T05:29:00;3.60;;;2.47;;
39098;SDS011;24844;52.380;7.018;2022-10-16T05:31:25;3.58;;;2.40;;
39098;SDS011;24844;52.380;7.018;2022-10-16T05:33:51;11.15;;;2.70;;
39098;SDS011;24844;52.380;7.018;2022-10-16T05:36:17;109.10;;;6.88;;
39098;SDS011;24844;52.380;7.018;2022-10-16T05:38:43;150.32;;;8.45;;
39098;SDS011;24844;52.380;7.018;2022-10-16T05:41:09;10.13;;;3.20;;
39098;SDS011;24844;52.380;7.018;2022-10-16T05:43:34;6.75;;;3.88;;
39098;SDS011;24844;52.380;7.018;2022-10-16T05:46:01;3.92;;;3.53;;
39098;SDS011;24844;52.380;7.018;2022-10-16T05:48:29;68.65;;;5.88;;
39098;SDS011;24844;52.380;7.018;2022-10-16T05:51:02;4.28;;;2.67;;
39098;SDS011;24844;52.380;7.018;2022-10-16T05:53:30;3.33;;;2.45;;
39098;SDS011;24844;52.380;7.018;2022-10-16T05:55:57;6.35;;;2.78;;
39098;SDS011;24844;52.380;7.018;2022-10-16T05:58:23;6.10;;;2.60;;
39098;SDS011;24844;52.380;7.018;2022-10-16T06:00:56;6.18;;;2.70;;
39098;SDS011;24844;52.380;7.018;2022-10-16T06:03:27;6.25;;;2.75;;
39098;SDS011;24844;52.380;7.018;2022-10-16T06:05:53;5.22;;;3.30;;
39098;SDS011;24844;52.380;7.018;2022-10-16T06:08:20;8.95;;;2.60;;
39098;SDS011;24844;52.380;7.018;2022-10-16T06:10:47;5.25;;;2.60;;
39098;SDS011;24844;52.380;7.018;2022-10-16T06:13:13;5.10;;;2.83;;
39098;SDS011;24844;52.380;7.018;2022-10-16T06:15:40;4.07;;;2.28;;
39098;SDS011;24844;52.380;7.018;2022-10-16T06:18:07;6.35;;;2.58;;
39098;SDS011;24844;52.380;7.018;2022-10-16T06:20:33;10.43;;;2.58;;
39098;SDS011;24844;52.380;7.018;2022-10-16T06:22:59;40.10;;;4.38;;
39098;SDS011;24844;52.380;7.018;2022-10-16T06:25:25;6.70;;;2.95;;
39098;SDS011;24844;52.380;7.018;2022-10-16T06:27:50;6.63;;;2.63;;
39098;SDS011;24844;52.380;7.018;2022-10-16T06:30:16;6.03;;;2.40;;
39098;SDS011;24844;52.380;7.018;2022-10-16T06:32:41;4.78;;;2.17;;
39098;SDS011;24844;52.380;7.018;2022-10-16T06:35:07;7.05;;;2.58;;
39098;SDS011;24844;52.380;7.018;2022-10-16T06:37:32;11.15;;;2.60;;
39098;SDS011;24844;52.380;7.018;2022-10-16T06:39:58;6.30;;;2.50;;
39098;SDS011;24844;52.380;7.018;2022-10-16T06:42:25;6.78;;;2.42;;
39098;SDS011;24844;52.380;7.018;2022-10-16T06:44:51;5.97;;;2.20;;
39098;SDS011;24844;52.380;7.018;2022-10-16T06:47:16;4.72;;;2.20;;
39098;SDS011;24844;52.380;7.018;2022-10-16T06:49:42;5.35;;;2.20;;
39098;SDS011;24844;52.380;7.018;2022-10-16T06:52:07;6.03;;;2.58;;
39098;SDS011;24844;52.380;7.018;2022-10-16T06:54:33;4.75;;;2.30;;
39098;SDS011;24844;52.380;7.018;2022-10-16T06:56:58;4.53;;;2.10;;
39098;SDS011;24844;52.380;7.018;2022-10-16T06:59:25;4.78;;;2.10;;
39098;SDS011;24844;52.380;7.018;2022-10-16T07:01:50;5.60;;;2.30;;
39098;SDS011;24844;52.380;7.018;2022-10-16T07:04:16;2.80;;;2.00;;
39098;SDS011;24844;52.380;7.018;2022-10-16T07:06:41;5.05;;;2.20;;
39098;SDS011;24844;52.380;7.018;2022-10-16T07:09:08;5.32;;;2.00;;
39098;SDS011;24844;52.380;7.018;2022-10-16T07:11:36;2.15;;;1.63;;
39098;SDS011;24844;52.380;7.018;2022-10-16T07:14:03;4.88;;;2.20;;
39098;SDS011;24844;52.380;7.018;2022-10-16T07:16:30;3.15;;;1.80;;
39098;SDS011;24844;52.380;7.018;2022-10-16T07:18:57;3.13;;;1.80;;
39098;SDS011;24844;52.380;7.018;2022-10-16T07:21:24;3.97;;;1.95;;
39098;SDS011;24844;52.380;7.018;2022-10-16T07:23:52;3.15;;;1.35;;
39098;SDS011;24844;52.380;7.018;2022-10-16T07:26:19;3.47;;;1.38;;
39098;SDS011;24844;52.380;7.018;2022-10-16T07:28:46;6.03;;;2.05;;
39098;SDS011;24844;52.380;7.018;2022-10-16T07:31:12;5.40;;;1.85;;
39098;SDS011;24844;52.380;7.018;2022-10-16T07:33:40;3.30;;;1.50;;
39098;SDS011;24844;52.380;7.018;2022-10-16T07:36:09;6.57;;;1.98;;
39098;SDS011;24844;52.380;7.018;2022-10-16T07:38:35;3.25;;;1.50;;
39098;SDS011;24844;52.380;7.018;2022-10-16T07:41:01;2.92;;;1.50;;
39098;SDS011;24844;52.380;7.018;2022-10-16T07:43:29;3.63;;;1.50;;
39098;SDS011;24844;52.380;7.018;2022-10-16T07:45:55;3.53;;;1.40;;
39098;SDS011;24844;52.380;7.018;2022-10-16T07:48:21;5.95;;;1.80;;
39098;SDS011;24844;52.380;7.018;2022-10-16T07:50:48;4.13;;;1.60;;
39098;SDS011;24844;52.380;7.018;2022-10-16T07:53:14;5.20;;;1.67;;
39098;SDS011;24844;52.380;7.018;2022-10-16T07:55:39;6.35;;;1.75;;
39098;SDS011;24844;52.380;7.018;2022-10-16T07:58:05;4.32;;;1.38;;
39098;SDS011;24844;52.380;7.018;2022-10-16T08:00:31;2.85;;;1.63;;
39098;SDS011;24844;52.380;7.018;2022-10-16T08:02:57;5.93;;;1.38;;
39098;SDS011;24844;52.380;7.018;2022-10-16T08:05:27;3.78;;;1.70;;
39098;SDS011;24844;52.380;7.018;2022-10-16T08:07:53;4.63;;;1.77;;
39098;SDS011;24844;52.380;7.018;2022-10-16T08:10:19;4.72;;;1.85;;
39098;SDS011;24844;52.380;7.018;2022-10-16T08:12:46;6.05;;;1.67;;
39098;SDS011;24844;52.380;7.018;2022-10-16T08:15:12;6.70;;;1.80;;
39098;SDS011;24844;52.380;7.018;2022-10-16T08:17:38;3.83;;;1.50;;
39098;SDS011;24844;52.380;7.018;2022-10-16T08:20:03;5.90;;;1.30;;
39098;SDS011;24844;52.380;7.018;2022-10-16T08:22:29;8.73;;;1.60;;
39098;SDS011;24844;52.380;7.018;2022-10-16T08:24:55;3.45;;;1.60;;
39098;SDS011;24844;52.380;7.018;2022-10-16T08:27:20;2.88;;;1.33;;
39098;SDS011;24844;52.380;7.018;2022-10-16T08:29:48;3.38;;;1.20;;
39098;SDS011;24844;52.380;7.018;2022-10-16T08:32:13;4.65;;;1.88;;
39098;SDS011;24844;52.380;7.018;2022-10-16T08:34:39;11.73;;;2.33;;
39098;SDS011;24844;52.380;7.018;2022-10-16T08:37:04;4.47;;;1.80;;
39098;SDS011;24844;52.380;7.018;2022-10-16T08:39:32;5.35;;;2.10;;
39098;SDS011;24844;52.380;7.018;2022-10-16T08:42:06;5.13;;;1.90;;
39098;SDS011;24844;52.380;7.018;2022-10-16T08:44:48;3.80;;;1.40;;
39098;SDS011;24844;52.380;7.018;2022-10-16T08:47:44;5.18;;;1.70;;
39098;SDS011;24844;52.380;7.018;2022-10-16T08:50:14;3.97;;;1.60;;
39098;SDS011;24844;52.380;7.018;2022-10-16T08:52:47;4.55;;;1.77;;
39098;SDS011;24844;52.380;7.018;2022-10-16T08:58:13;6.32;;;1.90;;
39098;SDS011;24844;52.380;7.018;2022-10-16T09:00:48;4.37;;;1.40;;
39098;SDS011;24844;52.380;7.018;2022-10-16T09:08:29;5.47;;;1.58;;
39098;SDS011;24844;52.380;7.018;2022-10-16T09:11:46;2.03;;;1.05;;
39098;SDS011;24844;52.380;7.018;2022-10-16T09:17:19;4.05;;;1.60;;
39098;SDS011;24844;52.380;7.018;2022-10-16T09:19:51;4.45;;;1.60;;
39098;SDS011;24844;52.380;7.018;2022-10-16T09:22:26;3.20;;;1.27;;
39098;SDS011;24844;52.380;7.018;2022-10-16T09:24:54;3.85;;;1.20;;
39098;SDS011;24844;52.380;7.018;2022-10-16T09:27:24;2.58;;;1.23;;
39098;SDS011;24844;52.380;7.018;2022-10-16T09:29:51;8.98;;;1.70;;
39098;SDS011;24844;52.380;7.018;2022-10-16T09:32:20;2.47;;;1.20;;
39098;SDS011;24844;52.380;7.018;2022-10-16T09:34:51;4.07;;;1.10;;
39098;SDS011;24844;52.380;7.018;2022-10-16T09:37:21;3.45;;;1.05;;
39098;SDS011;24844;52.380;7.018;2022-10-16T09:39:49;6.25;;;1.65;;
39098;SDS011;24844;52.380;7.018;2022-10-16T09:44:53;4.88;;;1.10;;
39098;SDS011;24844;52.380;7.018;2022-10-16T09:47:28;3.58;;;1.25;;
39098;SDS011;24844;52.380;7.018;2022-10-16T09:49:56;2.92;;;1.00;;
39098;SDS011;24844;52.380;7.018;2022-10-16T09:52:24;4.68;;;1.25;;
39098;SDS011;24844;52.380;7.018;2022-10-16T09:57:17;6.60;;;1.45;;
39098;SDS011;24844;52.380;7.018;2022-10-16T09:59:50;6.57;;;1.60;;
39098;SDS011;24844;52.380;7.018;2022-10-16T10:02:18;6.53;;;1.65;;
39098;SDS011;24844;52.380;7.018;2022-10-16T10:04:55;7.53;;;1.35;;
39098;SDS011;24844;52.380;7.018;2022-10-16T10:07:25;5.75;;;1.67;;
39098;SDS011;24844;52.380;7.018;2022-10-16T10:09:53;6.28;;;1.55;;
39098;SDS011;24844;52.380;7.018;2022-10-16T10:12:22;3.72;;;1.55;;
39098;SDS011;24844;52.380;7.018;2022-10-16T10:17:23;5.50;;;1.80;;
39098;SDS011;24844;52.380;7.018;2022-10-16T10:19:54;6.70;;;1.67;;
39098;SDS011;24844;52.380;7.018;2022-10-16T10:22:31;4.20;;;1.40;;
39098;SDS011;24844;52.380;7.018;2022-10-16T10:30:23;6.28;;;1.70;;
39098;SDS011;24844;52.380;7.018;2022-10-16T10:38:35;5.25;;;1.52;;
39098;SDS011;24844;52.380;7.018;2022-10-16T10:46:41;5.50;;;1.83;;
39098;SDS011;24844;52.380;7.018;2022-10-16T10:49:30;3.72;;;1.70;;
39098;SDS011;24844;52.380;7.018;2022-10-16T10:52:00;4.88;;;1.90;;
39098;SDS011;24844;52.380;7.018;2022-10-16T10:54:36;7.45;;;1.80;;
39098;SDS011;24844;52.380;7.018;2022-10-16T11:00:28;5.97;;;1.92;;
39098;SDS011;24844;52.380;7.018;2022-10-16T11:03:41;8.13;;;1.73;;
39098;SDS011;24844;52.380;7.018;2022-10-16T11:09:15;5.47;;;1.83;;
39098;SDS011;24844;52.380;7.018;2022-10-16T11:11:52;5.30;;;1.73;;
39098;SDS011;24844;52.380;7.018;2022-10-16T11:14:31;5.68;;;1.45;;
39098;SDS011;24844;52.380;7.018;2022-10-16T11:17:23;8.05;;;2.20;;
39098;SDS011;24844;52.380;7.018;2022-10-16T11:19:58;7.32;;;1.63;;
39098;SDS011;24844;52.380;7.018;2022-10-16T11:22:47;9.43;;;2.25;;
39098;SDS011;24844;52.380;7.018;2022-10-16T11:25:35;6.82;;;1.88;;
39098;SDS011;24844;52.380;7.018;2022-10-16T11:28:17;7.68;;;1.83;;
39098;SDS011;24844;52.380;7.018;2022-10-16T11:38:55;7.55;;;1.58;;
39098;SDS011;24844;52.380;7.018;2022-10-16T11:41:26;6.30;;;1.60;;
39098;SDS011;24844;52.380;7.018;2022-10-16T11:44:08;12.82;;;1.90;;
39098;SDS011;24844;52.380;7.018;2022-10-16T11:46:38;8.23;;;1.85;;
39098;SDS011;24844;52.380;7.018;2022-10-16T11:49:13;7.57;;;1.60;;
39098;SDS011;24844;52.380;7.018;2022-10-16T11:54:59;7.72;;;1.75;;
39098;SDS011;24844;52.380;7.018;2022-10-16T11:57:57;6.45;;;1.70;;
39098;SDS011;24844;52.380;7.018;2022-10-16T12:00:45;8.52;;;1.60;;
39098;SDS011;24844;52.380;7.018;2022-10-16T12:03:36;9.25;;;1.88;;
39098;SDS011;24844;52.380;7.018;2022-10-16T12:06:36;8.75;;;1.70;;
39098;SDS011;24844;52.380;7.018;2022-10-16T12:09:09;8.10;;;1.63;;
39098;SDS011;24844;52.380;7.018;2022-10-16T12:11:41;9.32;;;1.80;;
39098;SDS011;24844;52.380;7.018;2022-10-16T12:14:17;9.00;;;1.77;;
39098;SDS011;24844;52.380;7.018;2022-10-16T12:16:55;6.50;;;1.90;;
39098;SDS011;24844;52.380;7.018;2022-10-16T12:19:26;8.32;;;1.90;;
39098;SDS011;24844;52.380;7.018;2022-10-16T12:21:55;6.95;;;1.52;;
39098;SDS011;24844;52.380;7.018;2022-10-16T12:27:06;9.55;;;1.80;;
39098;SDS011;24844;52.380;7.018;2022-10-16T12:29:56;9.93;;;2.03;;
39098;SDS011;24844;52.380;7.018;2022-10-16T12:32:28;7.15;;;1.58;;
39098;SDS011;24844;52.380;7.018;2022-10-16T12:34:56;8.63;;;1.83;;
39098;SDS011;24844;52.380;7.018;2022-10-16T12:37:27;13.02;;;2.00;;
39098;SDS011;24844;52.380;7.018;2022-10-16T12:39:56;11.00;;;1.85;;
39098;SDS011;24844;52.380;7.018;2022-10-16T12:44:51;9.13;;;1.80;;
39098;SDS011;24844;52.380;7.018;2022-10-16T12:49:48;10.18;;;1.70;;
39098;SDS011;24844;52.380;7.018;2022-10-16T12:52:25;8.50;;;2.15;;
39098;SDS011;24844;52.380;7.018;2022-10-16T12:54:51;9.05;;;1.80;;
39098;SDS011;24844;52.380;7.018;2022-10-16T13:08:58;5.53;;;1.40;;
39098;SDS011;24844;52.380;7.018;2022-10-16T13:14:26;9.73;;;1.85;;
39098;SDS011;24844;52.380;7.018;2022-10-16T13:20:02;7.13;;;1.80;;
39098;SDS011;24844;52.380;7.018;2022-10-16T13:25:21;8.65;;;1.80;;
39098;SDS011;24844;52.380;7.018;2022-10-16T13:28:05;8.77;;;1.60;;
39098;SDS011;24844;52.380;7.018;2022-10-16T13:30:54;10.70;;;1.95;;
39098;SDS011;24844;52.380;7.018;2022-10-16T13:33:21;7.63;;;1.65;;
39098;SDS011;24844;52.380;7.018;2022-10-16T13:35:55;9.48;;;1.70;;
39098;SDS011;24844;52.380;7.018;2022-10-16T13:38:25;8.63;;;2.00;;
39098;SDS011;24844;52.380;7.018;2022-10-16T13:41:05;5.88;;;1.60;;
39098;SDS011;24844;52.380;7.018;2022-10-16T13:43:45;10.55;;;1.92;;
39098;SDS011;24844;52.380;7.018;2022-10-16T13:46:21;8.48;;;1.60;;
39098;SDS011;24844;52.380;7.018;2022-10-16T13:48:57;8.05;;;1.67;;
39098;SDS011;24844;52.380;7.018;2022-10-16T13:51:26;6.78;;;1.45;;
39098;SDS011;24844;52.380;7.018;2022-10-16T13:53:52;8.77;;;1.63;;
39098;SDS011;24844;52.380;7.018;2022-10-16T13:56:20;10.73;;;1.67;;
39098;SDS011;24844;52.380;7.018;2022-10-16T13:59:04;10.90;;;1.45;;
39098;SDS011;24844;52.380;7.018;2022-10-16T14:01:34;9.50;;;2.00;;
39098;SDS011;24844;52.380;7.018;2022-10-16T14:04:07;14.77;;;2.33;;
39098;SDS011;24844;52.380;7.018;2022-10-16T14:06:35;9.82;;;2.10;;
39098;SDS011;24844;52.380;7.018;2022-10-16T14:09:05;9.80;;;2.03;;
39098;SDS011;24844;52.380;7.018;2022-10-16T14:11:44;9.10;;;1.87;;
39098;SDS011;24844;52.380;7.018;2022-10-16T14:14:14;5.80;;;1.63;;
39098;SDS011;24844;52.380;7.018;2022-10-16T14:16:40;8.30;;;1.65;;
39098;SDS011;24844;52.380;7.018;2022-10-16T14:19:22;8.02;;;1.85;;
39098;SDS011;24844;52.380;7.018;2022-10-16T14:21:52;6.45;;;1.80;;
39098;SDS011;24844;52.380;7.018;2022-10-16T14:24:31;9.27;;;2.15;;
39098;SDS011;24844;52.380;7.018;2022-10-16T14:26:58;12.05;;;2.13;;
39098;SDS011;24844;52.380;7.018;2022-10-16T14:29:25;8.40;;;1.73;;
39098;SDS011;24844;52.380;7.018;2022-10-16T14:32:00;5.53;;;1.77;;
39098;SDS011;24844;52.380;7.018;2022-10-16T14:34:34;6.30;;;1.55;;
39098;SDS011;24844;52.380;7.018;2022-10-16T14:37:06;4.90;;;1.58;;
39098;SDS011;24844;52.380;7.018;2022-10-16T14:39:49;8.48;;;1.80;;
39098;SDS011;24844;52.380;7.018;2022-10-16T14:42:16;6.93;;;1.70;;
39098;SDS011;24844;52.380;7.018;2022-10-16T14:44:44;5.75;;;1.50;;
39098;SDS011;24844;52.380;7.018;2022-10-16T14:47:14;7.20;;;1.58;;
39098;SDS011;24844;52.380;7.018;2022-10-16T14:49:47;9.07;;;1.48;;
39098;SDS011;24844;52.380;7.018;2022-10-16T14:52:12;7.70;;;1.70;;
39098;SDS011;24844;52.380;7.018;2022-10-16T14:54:39;7.63;;;1.77;;
39098;SDS011;24844;52.380;7.018;2022-10-16T14:57:05;7.78;;;1.75;;
39098;SDS011;24844;52.380;7.018;2022-10-16T14:59:45;11.27;;;1.80;;
39098;SDS011;24844;52.380;7.018;2022-10-16T15:05:16;9.68;;;1.92;;
39098;SDS011;24844;52.380;7.018;2022-10-16T15:07:47;9.32;;;1.77;;
39098;SDS011;24844;52.380;7.018;2022-10-16T15:10:14;11.85;;;1.95;;
39098;SDS011;24844;52.380;7.018;2022-10-16T15:12:41;8.65;;;1.50;;
39098;SDS011;24844;52.380;7.018;2022-10-16T15:17:54;6.93;;;1.70;;
39098;SDS011;24844;52.380;7.018;2022-10-16T15:20:22;7.40;;;1.88;;
39098;SDS011;24844;52.380;7.018;2022-10-16T15:22:49;7.60;;;1.67;;
39098;SDS011;24844;52.380;7.018;2022-10-16T15:28:02;6.03;;;1.63;;
39098;SDS011;24844;52.380;7.018;2022-10-16T15:30:28;10.63;;;1.92;;
39098;SDS011;24844;52.380;7.018;2022-10-16T15:32:55;12.38;;;2.40;;
39098;SDS011;24844;52.380;7.018;2022-10-16T15:35:21;11.80;;;1.80;;
39098;SDS011;24844;52.380;7.018;2022-10-16T15:37:46;9.32;;;2.20;;
39098;SDS011;24844;52.380;7.018;2022-10-16T15:40:13;7.85;;;1.85;;
39098;SDS011;24844;52.380;7.018;2022-10-16T15:42:39;7.07;;;1.67;;
39098;SDS011;24844;52.380;7.018;2022-10-16T15:45:06;8.30;;;1.77;;
39098;SDS011;24844;52.380;7.018;2022-10-16T15:47:33;10.60;;;2.45;;
39098;SDS011;24844;52.380;7.018;2022-10-16T15:49:59;9.48;;;1.80;;
39098;SDS011;24844;52.380;7.018;2022-10-16T15:52:24;7.55;;;2.30;;
39098;SDS011;24844;52.380;7.018;2022-10-16T15:54:50;12.60;;;1.92;;
39098;SDS011;24844;52.380;7.018;2022-10-16T15:57:15;11.77;;;2.20;;
39098;SDS011;24844;52.380;7.018;2022-10-16T15:59:41;7.80;;;1.98;;
39098;SDS011;24844;52.380;7.018;2022-10-16T16:02:07;76.38;;;25.38;;
39098;SDS011;24844;52.380;7.018;2022-10-16T16:04:34;72.20;;;20.73;;
39098;SDS011;24844;52.380;7.018;2022-10-16T16:07:00;31.15;;;8.65;;
39098;SDS011;24844;52.380;7.018;2022-10-16T16:09:26;23.08;;;6.68;;
39098;SDS011;24844;52.380;7.018;2022-10-16T16:11:53;14.30;;;3.05;;
39098;SDS011;24844;52.380;7.018;2022-10-16T16:14:19;11.27;;;3.03;;
39098;SDS011;24844;52.380;7.018;2022-10-16T16:16:44;11.93;;;2.47;;
39098;SDS011;24844;52.380;7.018;2022-10-16T16:19:10;10.25;;;2.40;;
39098;SDS011;24844;52.380;7.018;2022-10-16T16:21:36;12.25;;;2.60;;
39098;SDS011;24844;52.380;7.018;2022-10-16T16:24:01;11.30;;;2.65;;
39098;SDS011;24844;52.380;7.018;2022-10-16T16:26:33;13.25;;;2.53;;
39098;SDS011;24844;52.380;7.018;2022-10-16T16:29:03;11.32;;;2.75;;
39098;SDS011;24844;52.380;7.018;2022-10-16T16:31:29;11.27;;;2.35;;
39098;SDS011;24844;52.380;7.018;2022-10-16T16:33:57;10.02;;;2.10;;
39098;SDS011;24844;52.380;7.018;2022-10-16T16:36:23;7.72;;;1.90;;
39098;SDS011;24844;52.380;7.018;2022-10-16T16:38:50;12.30;;;2.28;;
39098;SDS011;24844;52.380;7.018;2022-10-16T16:43:52;9.63;;;2.00;;
39098;SDS011;24844;52.380;7.018;2022-10-16T16:46:19;11.15;;;1.80;;
39098;SDS011;24844;52.380;7.018;2022-10-16T16:48:45;6.97;;;1.92;;